createdAt,value
2022-10-13T00:00:19.885Z,100210.20
2022-10-13T00:03:11.592Z,100210.86
2022-10-13T00:05:45.341Z,100205.45
2022-10-13T00:08:19.867Z,100206.40
2022-10-13T00:10:52.895Z,100203.84
2022-10-13T00:13:29.049Z,100203.14
2022-10-13T00:16:03.174Z,100201.88
2022-10-13T00:18:35.589Z,100205.05
2022-10-13T00:21:11.803Z,100206.94
2022-10-13T00:23:44.067Z,100204.95
2022-10-13T00:26:16.815Z,100204.36
2022-10-13T00:28:52.561Z,100202.55
2022-10-13T00:31:27.516Z,100200.59
2022-10-13T00:34:01.075Z,100201.70
2022-10-13T00:36:33.113Z,100198.86
2022-10-13T00:39:04.915Z,100200.55
2022-10-13T00:41:37.247Z,100197.23
2022-10-13T00:44:23.003Z,100195.41
2022-10-13T00:46:54.736Z,100197.05
2022-10-13T00:49:26.554Z,100191.84
2022-10-13T00:51:58.968Z,100193.98
2022-10-13T00:54:30.884Z,100190.23
2022-10-13T00:57:04.138Z,100186.87
2022-10-13T00:59:36.348Z,100184.33
2022-10-13T01:02:08.980Z,100181.89
2022-10-13T01:04:44.129Z,100181.80
2022-10-13T01:07:17.345Z,100179.22
2022-10-13T01:09:49.030Z,100176.19
2022-10-13T01:12:33.070Z,100175.09
2022-10-13T01:15:12.543Z,100172.66
2022-10-13T01:17:55.131Z,100174.55
2022-10-13T01:20:46.964Z,100172.50
2022-10-13T01:23:54.733Z,100171.86
2022-10-13T01:26:53.533Z,100169.17
2022-10-13T01:29:55.366Z,100167.65
2022-10-13T01:32:33.231Z,100163.69
2022-10-13T01:35:10.802Z,100163.52
2022-10-13T01:37:49.783Z,100162.58
2022-10-13T01:40:27.267Z,100165.19
2022-10-13T01:43:03.873Z,100162.06
2022-10-13T01:45:40.867Z,100159.09
2022-10-13T01:48:13.853Z,100160.68
2022-10-13T01:50:47.568Z,100160.30
2022-10-13T01:53:21.474Z,100159.34
2022-10-13T01:56:00.298Z,100163.30
2022-10-13T01:58:35.057Z,100157.29
2022-10-13T02:01:21.762Z,100157.52
2022-10-13T02:04:08.515Z,100159.70
2022-10-13T02:06:46.031Z,100159.41
2022-10-13T02:09:27.867Z,100155.42
2022-10-13T02:12:07.852Z,100154.85
2022-10-13T02:14:43.145Z,100155.30
2022-10-13T02:17:16.417Z,100156.19
2022-10-13T02:19:50.292Z,100153.34
2022-10-13T02:22:24.307Z,100151.60
2022-10-13T02:24:57.442Z,100151.02
2022-10-13T02:27:29.548Z,100147.88
2022-10-13T02:30:01.528Z,100144.02
2022-10-13T02:32:34.762Z,100143.17
2022-10-13T02:35:07.402Z,100143.31
2022-10-13T02:37:39.202Z,100135.94
2022-10-13T02:40:14.056Z,100133.73
2022-10-13T02:42:47.764Z,100130.49
2022-10-13T02:45:19.715Z,100131.88
2022-10-13T02:47:51.476Z,100130.42
2022-10-13T02:50:23.152Z,100128.27
2022-10-13T02:52:55.362Z,100124.25
2022-10-13T02:55:27.425Z,100123.19
2022-10-13T02:58:01.534Z,100121.02
2022-10-13T03:00:33.264Z,100124.38
2022-10-13T03:03:04.965Z,100121.88
2022-10-13T03:05:36.610Z,100121.67
2022-10-13T03:08:09.274Z,100125.00
2022-10-13T03:10:40.969Z,100126.46
2022-10-13T03:13:12.631Z,100127.13
2022-10-13T03:15:44.360Z,100128.58
2022-10-13T03:18:16.104Z,100126.80
2022-10-13T03:20:58.961Z,100127.56
2022-10-13T03:23:30.810Z,100126.38
2022-10-13T03:26:02.597Z,100129.95
2022-10-13T03:28:34.438Z,100127.30
2022-10-13T03:31:08.218Z,100127.38
2022-10-13T03:33:40.687Z,100128.66
2022-10-13T03:36:14.389Z,100130.38
2022-10-13T03:38:47.193Z,100127.40
2022-10-13T03:41:20.418Z,100127.27
2022-10-13T03:43:55.200Z,100124.35
2022-10-13T03:46:30.233Z,100127.23
2022-10-13T03:49:02.111Z,100130.50
2022-10-13T03:51:34.837Z,100125.55
2022-10-13T03:54:06.725Z,100125.54
2022-10-13T03:56:38.627Z,100125.38
2022-10-13T03:59:12.637Z,100123.45
2022-10-13T04:01:44.401Z,100114.65
2022-10-13T04:04:16.091Z,100112.91
2022-10-13T04:06:48.111Z,100108.89
2022-10-13T04:09:20.193Z,100107.20
2022-10-13T04:11:53.670Z,100105.15
2022-10-13T04:14:25.398Z,100104.95
2022-10-13T04:16:57.235Z,100106.75
2022-10-13T04:19:28.942Z,100108.77
2022-10-13T04:22:00.617Z,100107.51
2022-10-13T04:24:32.306Z,100110.79
2022-10-13T04:27:03.982Z,100111.55
2022-10-13T04:29:35.629Z,100112.04
2022-10-13T04:32:07.970Z,100114.70
2022-10-13T04:34:39.858Z,100113.16
2022-10-13T04:37:11.832Z,100112.98
2022-10-13T04:39:43.598Z,100109.76
2022-10-13T04:42:15.329Z,100106.58
2022-10-13T04:44:46.975Z,100103.17
2022-10-13T04:47:19.477Z,100105.08
2022-10-13T04:49:51.406Z,100103.30
2022-10-13T04:52:23.212Z,100101.60
2022-10-13T04:54:58.598Z,100099.24
2022-10-13T04:57:30.552Z,100101.30
2022-10-13T05:00:02.294Z,100102.33
2022-10-13T05:02:37.293Z,100103.90
2022-10-13T05:05:10.927Z,100102.75
2022-10-13T05:07:42.570Z,100103.71
2022-10-13T05:10:14.997Z,100106.73
2022-10-13T05:12:46.869Z,100108.46
2022-10-13T05:15:18.771Z,100110.03
2022-10-13T05:17:50.437Z,100109.09
2022-10-13T05:20:22.164Z,100111.19
2022-10-13T05:22:53.838Z,100109.52
2022-10-13T05:25:26.734Z,100109.21
2022-10-13T05:28:01.129Z,100107.17
2022-10-13T05:30:32.832Z,100105.73
2022-10-13T05:33:05.780Z,100106.48
2022-10-13T05:35:37.513Z,100107.59
2022-10-13T05:38:10.246Z,100112.67
2022-10-13T05:40:41.927Z,100114.95
2022-10-13T05:43:13.685Z,100118.88
2022-10-13T05:45:45.370Z,100116.52
2022-10-13T05:48:17.130Z,100117.76
2022-10-13T05:50:48.819Z,100112.94
2022-10-13T05:53:21.154Z,100114.31
2022-10-13T05:55:54.619Z,100113.14
2022-10-13T05:58:27.103Z,100114.54
2022-10-13T06:00:59.420Z,100110.68
2022-10-13T06:03:31.419Z,100114.60
2022-10-13T06:06:03.536Z,100113.64
2022-10-13T06:08:35.194Z,100115.19
2022-10-13T06:11:08.319Z,100112.06
2022-10-13T06:13:39.966Z,100113.68
2022-10-13T06:16:11.717Z,100115.52
2022-10-13T06:18:43.775Z,100113.88
2022-10-13T06:21:15.530Z,100117.57
2022-10-13T06:23:47.174Z,100113.30
2022-10-13T06:26:18.917Z,100115.47
2022-10-13T06:28:54.473Z,100115.62
2022-10-13T06:31:28.940Z,100115.88
2022-10-13T06:34:01.186Z,100113.58
2022-10-13T06:36:32.864Z,100112.11
2022-10-13T06:39:04.747Z,100112.80
2022-10-13T06:41:36.464Z,100112.44
2022-10-13T06:44:08.633Z,100115.45
2022-10-13T06:46:40.301Z,100113.89
2022-10-13T06:49:12.193Z,100116.55
2022-10-13T06:51:44.254Z,100114.68
2022-10-13T06:54:16.165Z,100114.41
2022-10-13T06:56:48.190Z,100119.86
2022-10-13T06:59:20.266Z,100116.63
2022-10-13T07:01:53.564Z,100109.49
2022-10-13T07:04:28.252Z,100109.88
2022-10-13T07:07:03.056Z,100112.01
2022-10-13T07:09:35.059Z,100109.71
2022-10-13T07:12:07.599Z,100107.52
2022-10-13T07:14:41.694Z,100104.95
2022-10-13T07:17:15.877Z,100106.93
2022-10-13T07:19:48.777Z,100108.07
2022-10-13T07:22:20.638Z,100102.78
2022-10-13T07:24:52.381Z,100103.48
2022-10-13T07:27:25.588Z,100108.49
2022-10-13T07:29:57.599Z,100107.77
2022-10-13T07:32:29.522Z,100102.95
2022-10-13T07:35:01.754Z,100102.45
2022-10-13T07:37:33.453Z,100098.45
2022-10-13T07:40:05.810Z,100094.87
2022-10-13T07:42:37.899Z,100095.65
2022-10-13T07:45:11.262Z,100094.77
2022-10-13T07:47:42.986Z,100094.94
2022-10-13T07:50:14.828Z,100096.07
2022-10-13T07:52:46.736Z,100088.73
2022-10-13T07:55:18.620Z,100086.54
2022-10-13T07:57:50.299Z,100084.42
2022-10-13T08:00:22.547Z,100086.45
2022-10-13T08:02:54.301Z,100082.22
2022-10-13T08:05:26.121Z,100080.73
2022-10-13T08:07:58.582Z,100079.36
2022-10-13T08:10:30.776Z,100082.77
2022-10-13T08:13:02.566Z,100080.23
2022-10-13T08:15:34.324Z,100078.86
2022-10-13T08:18:06.384Z,100073.38
2022-10-13T08:20:41.192Z,100066.49
2022-10-13T08:23:15.739Z,100064.80
2022-10-13T08:25:53.756Z,100062.44
2022-10-13T08:28:28.525Z,100061.75
2022-10-13T08:31:01.488Z,100063.89
2022-10-13T08:33:33.429Z,100062.50
2022-10-13T08:36:06.332Z,100060.96
2022-10-13T08:38:38.025Z,100059.92
2022-10-13T08:41:18.922Z,100056.67
2022-10-13T08:44:39.654Z,100053.65
2022-10-13T08:46:52.492Z,100053.20
2022-10-13T08:49:24.273Z,100051.33
2022-10-13T08:51:58.884Z,100054.15
2022-10-13T08:54:30.689Z,100047.65
2022-10-13T08:57:02.650Z,100045.32
2022-10-13T08:59:34.585Z,100041.24
2022-10-13T09:02:15.042Z,100040.67
2022-10-13T09:04:50.946Z,100039.58
2022-10-13T09:07:26.059Z,100037.14
2022-10-13T09:09:58.059Z,100030.45
2022-10-13T09:12:31.535Z,100024.99
2022-10-13T09:15:06.465Z,100021.79
2022-10-13T09:17:39.682Z,100015.16
2022-10-13T09:20:22.078Z,100007.31
2022-10-13T09:23:09.162Z,100005.44
2022-10-13T09:25:44.906Z,100002.33
2022-10-13T09:28:21.544Z,99999.41
2022-10-13T09:31:04.668Z,99990.17
2022-10-13T09:33:40.437Z,99989.36
2022-10-13T09:36:15.339Z,99990.61
2022-10-13T09:39:05.030Z,99986.25
2022-10-13T09:41:38.279Z,99987.14
2022-10-13T09:44:17.549Z,99985.42
2022-10-13T09:46:52.597Z,99986.98
2022-10-13T09:49:37.576Z,99987.84
2022-10-13T09:52:20.023Z,99983.77
2022-10-13T09:54:54.504Z,99980.73
2022-10-13T09:57:33.899Z,99977.88
2022-10-13T10:00:20.057Z,99975.72
2022-10-13T10:02:59.195Z,99976.18
2022-10-13T10:05:43.254Z,99971.73
2022-10-13T10:08:28.833Z,99964.08
2022-10-13T10:11:13.435Z,99961.54
2022-10-13T10:13:46.158Z,99952.47
2022-10-13T10:16:30.011Z,99946.91
2022-10-13T10:19:07.583Z,99947.17
2022-10-13T10:21:45.344Z,99937.73
2022-10-13T10:24:27.955Z,99938.52
2022-10-13T10:27:04.785Z,99933.33
2022-10-13T10:29:46.669Z,99931.70
2022-10-13T10:32:28.896Z,99928.98
2022-10-13T10:35:05.370Z,99930.07
2022-10-13T10:37:50.636Z,99925.52
2022-10-13T10:40:34.208Z,99918.89
2022-10-13T10:43:27.358Z,99914.79
2022-10-13T10:46:00.446Z,99918.08
2022-10-13T10:48:37.322Z,99916.27
2022-10-13T10:51:12.026Z,99913.73
2022-10-13T10:53:53.176Z,99907.09
2022-10-13T10:56:33.497Z,99906.09
2022-10-13T10:59:20.208Z,99907.95
2022-10-13T11:02:01.344Z,99904.19
2022-10-13T11:04:42.108Z,99902.84
2022-10-13T11:07:35.680Z,99896.60
2022-10-13T11:10:21.477Z,99892.94
2022-10-13T11:13:22.109Z,99890.70
2022-10-13T11:15:55.525Z,99886.00
2022-10-13T11:19:10.657Z,99882.61
2022-10-13T11:22:25.166Z,99878.27
2022-10-13T11:25:28.585Z,99874.54
2022-10-13T11:28:00.369Z,99863.59
2022-10-13T11:30:50.600Z,99862.70
2022-10-13T11:33:56.754Z,99857.34
2022-10-13T11:36:49.880Z,99856.55
2022-10-13T11:40:00.657Z,99855.58
2022-10-13T11:42:49.265Z,99852.34
2022-10-13T11:45:32.591Z,99853.69
2022-10-13T11:48:37.329Z,99851.84
2022-10-13T11:51:23.279Z,99849.00
2022-10-13T11:54:01.610Z,99843.69
2022-10-13T11:56:48.496Z,99833.52
2022-10-13T11:59:26.686Z,99832.10
2022-10-13T12:01:58.705Z,99825.50
2022-10-13T12:04:31.004Z,99828.80
2022-10-13T12:07:05.337Z,99825.04
2022-10-13T12:09:47.853Z,99821.42
2022-10-13T12:12:22.643Z,99820.75
2022-10-13T12:14:59.784Z,99819.48
2022-10-13T12:17:38.946Z,99819.13
2022-10-13T12:20:24.171Z,99810.81
2022-10-13T12:22:57.479Z,99809.41
2022-10-13T12:25:31.169Z,99806.77
2022-10-13T12:28:03.421Z,99806.08
2022-10-13T12:30:37.197Z,99803.29
2022-10-13T12:33:26.040Z,99802.20
2022-10-13T12:35:57.901Z,99801.17
2022-10-13T12:38:29.858Z,99802.23
2022-10-13T12:41:01.970Z,99799.41
2022-10-13T12:43:33.912Z,99800.83
2022-10-13T12:46:07.441Z,99799.36
2022-10-13T12:48:40.448Z,99797.69
2022-10-13T12:51:19.823Z,99797.13
2022-10-13T12:53:51.797Z,99794.39
2022-10-13T12:56:33.331Z,99796.30
2022-10-13T12:59:06.551Z,99795.08
2022-10-13T13:01:38.374Z,99793.65
2022-10-13T13:04:29.169Z,99791.34
2022-10-13T13:07:02.700Z,99788.71
2022-10-13T13:09:35.856Z,99789.63
2022-10-13T13:12:22.901Z,99785.53
2022-10-13T13:14:55.992Z,99784.95
2022-10-13T13:17:56.658Z,99778.20
2022-10-13T13:20:29.997Z,99776.41
2022-10-13T13:23:02.149Z,99776.41
2022-10-13T13:25:34.351Z,99775.52
2022-10-13T13:28:14.047Z,99773.90
2022-10-13T13:30:46.605Z,99771.38
2022-10-13T13:33:18.528Z,99766.64
2022-10-13T13:35:51.277Z,99764.41
2022-10-13T13:38:24.636Z,99770.27
2022-10-13T13:40:58.986Z,99766.59
2022-10-13T13:43:33.393Z,99766.67
2022-10-13T13:46:06.858Z,99765.33
2022-10-13T13:48:38.761Z,99765.95
2022-10-13T13:51:10.867Z,99764.15
2022-10-13T13:53:42.867Z,99759.27
2022-10-13T13:56:16.264Z,99759.04
2022-10-13T13:58:48.167Z,99757.65
2022-10-13T14:01:19.943Z,99756.45
2022-10-13T14:03:52.051Z,99753.59
2022-10-13T14:06:24.289Z,99755.35
2022-10-13T14:08:58.144Z,99756.02
2022-10-13T14:11:30.082Z,99749.67
2022-10-13T14:14:02.560Z,99749.81
2022-10-13T14:16:34.585Z,99748.64
2022-10-13T14:19:08.495Z,99745.79
2022-10-13T14:21:40.636Z,99744.92
2022-10-13T14:24:15.264Z,99740.88
2022-10-13T14:26:47.232Z,99743.75
2022-10-13T14:29:19.084Z,99742.08
2022-10-13T14:31:50.782Z,99744.84
2022-10-13T14:34:22.509Z,99740.09
2022-10-13T14:36:54.387Z,99740.65
2022-10-13T14:39:26.167Z,99739.97
2022-10-13T14:41:57.888Z,99740.29
2022-10-13T14:44:29.649Z,99741.45
2022-10-13T14:47:01.779Z,99736.96
2022-10-13T14:49:33.525Z,99738.98
2022-10-13T14:52:06.414Z,99736.94
2022-10-13T14:54:41.244Z,99735.15
2022-10-13T14:57:16.476Z,99735.98
2022-10-13T14:59:48.608Z,99733.26
2022-10-13T15:02:20.391Z,99736.95
2022-10-13T15:04:57.979Z,99737.61
2022-10-13T15:07:29.701Z,99736.21
2022-10-13T15:10:05.358Z,99734.64
2022-10-13T15:12:37.871Z,99732.39
2022-10-13T15:15:10.897Z,99731.55
2022-10-13T15:17:42.866Z,99735.15
2022-10-13T15:20:14.795Z,99735.21
2022-10-13T15:22:47.869Z,99733.17
2022-10-13T15:25:20.088Z,99731.86
2022-10-13T15:27:54.461Z,99733.36
2022-10-13T15:30:26.301Z,99734.15
2022-10-13T15:32:57.966Z,99733.50
2022-10-13T15:35:32.605Z,99733.34
2022-10-13T15:38:04.318Z,99734.18
2022-10-13T15:40:39.594Z,99729.05
2022-10-13T15:43:11.278Z,99731.12
2022-10-13T15:45:43.027Z,99729.27
2022-10-13T15:48:16.003Z,99727.63
2022-10-13T15:50:47.744Z,99727.04
2022-10-13T15:53:20.229Z,99728.34
2022-10-13T15:55:52.263Z,99728.61
2022-10-13T15:58:24.008Z,99730.94
2022-10-13T16:00:55.770Z,99729.60
2022-10-13T16:03:29.881Z,99729.81
2022-10-13T16:06:05.962Z,99726.88
2022-10-13T16:08:40.704Z,99725.66
2022-10-13T16:11:14.265Z,99725.84
2022-10-13T16:13:48.186Z,99725.68
2022-10-13T16:16:20.990Z,99724.27
2022-10-13T16:18:52.736Z,99727.23
2022-10-13T16:21:27.083Z,99725.47
2022-10-13T16:24:00.116Z,99726.30
2022-10-13T16:26:31.929Z,99724.51
2022-10-13T16:29:03.857Z,99721.31
2022-10-13T16:31:35.918Z,99724.05
2022-10-13T16:34:07.666Z,99726.27
2022-10-13T16:36:39.352Z,99728.33
2022-10-13T16:39:11.077Z,99725.84
2022-10-13T16:41:44.003Z,99726.50
2022-10-13T16:44:16.935Z,99730.85
2022-10-13T16:46:49.841Z,99733.95
2022-10-13T16:49:21.599Z,99727.80
2022-10-13T16:51:53.414Z,99729.48
2022-10-13T16:54:25.132Z,99730.63
2022-10-13T16:56:56.905Z,99727.57
2022-10-13T16:59:29.857Z,99729.23
2022-10-13T17:02:01.526Z,99730.89
2022-10-13T17:04:34.299Z,99729.42
2022-10-13T17:07:05.946Z,99728.81
2022-10-13T17:09:37.706Z,99729.31
2022-10-13T17:12:09.882Z,99726.50
2022-10-13T17:14:41.891Z,99723.65
2022-10-13T17:17:13.771Z,99726.58
2022-10-13T17:19:45.452Z,99726.70
2022-10-13T17:22:17.154Z,99727.14
2022-10-13T17:24:49.511Z,99729.66
2022-10-13T17:27:21.469Z,99735.66
2022-10-13T17:29:54.932Z,99730.64
2022-10-13T17:32:26.678Z,99730.87
2022-10-13T17:34:59.038Z,99733.23
2022-10-13T17:37:30.721Z,99732.30
2022-10-13T17:40:02.548Z,99727.74
2022-10-13T17:42:34.339Z,99722.51
2022-10-13T17:45:07.015Z,99718.08
2022-10-13T17:47:39.019Z,99715.77
2022-10-13T17:50:12.179Z,99715.20
2022-10-13T17:52:44.681Z,99711.31
2022-10-13T17:55:17.337Z,99713.85
2022-10-13T17:57:49.671Z,99710.40
2022-10-13T18:00:22.100Z,99715.30
2022-10-13T18:02:55.927Z,99715.20
2022-10-13T18:05:27.826Z,99714.40
2022-10-13T18:08:00.603Z,99711.56
2022-10-13T18:10:50.924Z,99713.44
2022-10-13T18:13:25.323Z,99712.86
2022-10-13T18:15:57.110Z,99711.98
2022-10-13T18:18:29.014Z,99710.56
2022-10-13T18:21:03.783Z,99711.29
2022-10-13T18:23:36.867Z,99713.00
2022-10-13T18:26:12.023Z,99713.13
2022-10-13T18:28:44.969Z,99712.36
2022-10-13T18:31:24.963Z,99711.19
2022-10-13T18:34:00.530Z,99709.16
2022-10-13T18:36:36.264Z,99708.55
2022-10-13T18:39:14.093Z,99709.91
2022-10-13T18:41:48.205Z,99706.05
2022-10-13T18:44:20.506Z,99703.95
2022-10-13T18:46:54.971Z,99705.79
2022-10-13T18:49:31.705Z,99707.86
2022-10-13T18:52:04.305Z,99709.40
2022-10-13T18:54:36.043Z,99706.53
2022-10-13T18:57:08.424Z,99707.98
2022-10-13T18:59:40.445Z,99709.11
2022-10-13T19:02:16.500Z,99707.95
2022-10-13T19:04:48.236Z,99706.70
2022-10-13T19:07:21.534Z,99702.64
2022-10-13T19:09:54.328Z,99701.05
2022-10-13T19:12:26.443Z,99701.03
2022-10-13T19:14:58.903Z,99700.85
2022-10-13T19:17:30.657Z,99699.73
2022-10-13T19:20:02.483Z,99704.77
2022-10-13T19:22:34.229Z,99709.09
2022-10-13T19:25:07.317Z,99707.30
2022-10-13T19:27:39.480Z,99708.25
2022-10-13T19:30:15.373Z,99710.24
2022-10-13T19:32:47.717Z,99714.20
2022-10-13T19:35:19.513Z,99712.36
2022-10-13T19:37:51.456Z,99708.65
2022-10-13T19:40:23.508Z,99708.73
2022-10-13T19:42:55.405Z,99713.57
2022-10-13T19:45:30.140Z,99714.98
2022-10-13T19:48:02.021Z,99717.21
2022-10-13T19:50:35.321Z,99713.11
2022-10-13T19:53:07.412Z,99710.10
2022-10-13T19:55:41.514Z,99712.80
2022-10-13T19:58:14.224Z,99711.27
2022-10-13T20:00:46.887Z,99704.59
2022-10-13T20:03:20.008Z,99708.06
2022-10-13T20:05:54.488Z,99712.07
2022-10-13T20:08:26.180Z,99714.16
2022-10-13T20:10:57.914Z,99712.75
2022-10-13T20:13:29.631Z,99715.52
2022-10-13T20:16:10.134Z,99708.70
2022-10-13T20:18:42.635Z,99710.31
2022-10-13T20:21:15.658Z,99704.92
2022-10-13T20:23:47.386Z,99703.45
2022-10-13T20:26:19.908Z,99704.80
2022-10-13T20:28:53.228Z,99699.73
2022-10-13T20:31:27.609Z,99698.10
2022-10-13T20:34:00.233Z,99692.45
2022-10-13T20:36:38.859Z,99691.06
2022-10-13T20:39:11.134Z,99687.38
2022-10-13T20:41:42.969Z,99686.83
2022-10-13T20:44:14.754Z,99689.10
2022-10-13T20:46:46.522Z,99687.85
2022-10-13T20:49:18.254Z,99686.23
2022-10-13T20:51:50.046Z,99681.64
2022-10-13T20:54:23.764Z,99683.98
2022-10-13T20:56:56.268Z,99681.52
2022-10-13T20:59:28.093Z,99681.84
2022-10-13T21:01:59.842Z,99686.86
2022-10-13T21:04:32.228Z,99683.54
2022-10-13T21:07:04.526Z,99677.48
2022-10-13T21:09:37.136Z,99680.45
2022-10-13T21:12:09.489Z,99678.17
2022-10-13T21:14:41.437Z,99680.88
2022-10-13T21:17:13.583Z,99679.18
2022-10-13T21:19:46.052Z,99678.80
2022-10-13T21:22:17.966Z,99674.42
2022-10-13T21:24:49.912Z,99670.38
2022-10-13T21:27:21.994Z,99665.38
2022-10-13T21:29:54.242Z,99668.02
2022-10-13T21:32:26.741Z,99670.45
2022-10-13T21:34:58.969Z,99670.27
2022-10-13T21:37:34.004Z,99671.96
2022-10-13T21:40:07.187Z,99670.13
2022-10-13T21:42:39.102Z,99667.92
2022-10-13T21:45:12.685Z,99665.18
2022-10-13T21:47:44.647Z,99666.61
2022-10-13T21:50:16.415Z,99666.73
2022-10-13T21:52:49.816Z,99667.13
2022-10-13T21:55:21.635Z,99664.08
2022-10-13T21:57:57.564Z,99663.00
2022-10-13T22:00:34.243Z,99658.91
2022-10-13T22:03:06.070Z,99662.18
2022-10-13T22:05:38.571Z,99665.27
2022-10-13T22:08:10.965Z,99662.94
2022-10-13T22:10:42.648Z,99663.60
2022-10-13T22:13:14.375Z,99667.58
2022-10-13T22:15:46.094Z,99661.80
2022-10-13T22:18:20.464Z,99665.14
2022-10-13T22:20:52.474Z,99664.33
2022-10-13T22:23:26.555Z,99662.91
2022-10-13T22:25:58.678Z,99663.85
2022-10-13T22:28:34.693Z,99657.63
2022-10-13T22:31:10.181Z,99655.73
2022-10-13T22:33:43.249Z,99658.17
2022-10-13T22:36:17.942Z,99659.25
2022-10-13T22:38:51.089Z,99659.34
2022-10-13T22:41:23.162Z,99654.36
2022-10-13T22:43:56.330Z,99657.55
2022-10-13T22:46:30.362Z,99657.14
2022-10-13T22:49:02.308Z,99657.69
2022-10-13T22:51:36.314Z,99657.27
2022-10-13T22:54:08.157Z,99653.65
2022-10-13T22:56:41.686Z,99654.43
2022-10-13T22:59:14.142Z,99659.54
2022-10-13T23:01:45.800Z,99654.92
2022-10-13T23:04:17.553Z,99655.34
2022-10-13T23:06:49.226Z,99655.14
2022-10-13T23:09:20.919Z,99655.53
2022-10-13T23:11:55.148Z,99657.88
2022-10-13T23:14:32.643Z,99656.89
2022-10-13T23:17:04.496Z,99655.69
2022-10-13T23:19:36.424Z,99657.45
2022-10-13T23:22:08.191Z,99658.20
2022-10-13T23:24:40.218Z,99661.70
2022-10-13T23:27:12.726Z,99655.77
2022-10-13T23:29:44.483Z,99656.38
2022-10-13T23:32:16.246Z,99655.02
2022-10-13T23:34:48.009Z,99657.73
2022-10-13T23:37:20.641Z,99656.45
2022-10-13T23:39:52.702Z,99655.90
2022-10-13T23:42:24.485Z,99653.16
2022-10-13T23:44:56.244Z,99650.00
2022-10-13T23:47:27.983Z,99647.70
2022-10-13T23:49:59.643Z,99639.68
2022-10-13T23:52:31.399Z,99645.21
2022-10-13T23:55:03.308Z,99643.77
2022-10-13T23:57:35.040Z,99646.71
